Time;durP1;ratioP1;P1;durP2;ratioP2;P2;SDS_P1;SDS_P2;PMS_P1;PMS_P2;Temp;Humidity;BMP_temperature;BMP_pressure;BME280_temperature;BME280_humidity;BME280_pressure;Samples;Min_cycle;Max_cycle;Signal;HPM_P1;HPM_P2
2023/10/30 00:02:08;;;;;;;2.95;1.35;;;;;;;;;;5064918;28;20028;-88
2023/10/30 00:04:53;;;;;;;3.17;1.50;;;;;;;;;;5058484;28;20453;-88
2023/10/30 00:07:38;;;;;;;2.42;1.20;;;;;;;;;;5068606;28;20032;-88
2023/10/30 00:10:23;;;;;;;7.20;1.52;;;;;;;;;;5069912;28;20040;-89
2023/10/30 00:13:09;;;;;;;1.67;1.17;;;;;;;;;;5070039;28;20039;-88
2023/10/30 00:15:55;;;;;;;7.47;1.95;;;;;;;;;;5066733;28;20043;-88
2023/10/30 00:18:41;;;;;;;3.75;1.20;;;;;;;;;;5073926;28;20031;-89
2023/10/30 00:21:26;;;;;;;4.05;1.52;;;;;;;;;;5066035;28;20482;-89
2023/10/30 00:24:11;;;;;;;1.38;1.13;;;;;;;;;;5067857;28;20024;-89
2023/10/30 00:26:56;;;;;;;4.15;1.63;;;;;;;;;;5055007;28;20028;-90
2023/10/30 00:29:42;;;;;;;2.22;1.30;;;;;;;;;;5072081;28;20036;-90
2023/10/30 00:32:27;;;;;;;2.13;1.60;;;;;;;;;;5052726;28;20068;-89
2023/10/30 00:35:12;;;;;;;3.53;1.58;;;;;;;;;;5071510;28;20028;-88
2023/10/30 00:37:58;;;;;;;2.60;1.45;;;;;;;;;;5072393;28;20020;-89
2023/10/30 00:40:43;;;;;;;2.63;1.48;;;;;;;;;;5068269;28;20024;-89
2023/10/30 00:43:29;;;;;;;1.55;1.25;;;;;;;;;;5078954;28;20039;-88
2023/10/30 00:46:14;;;;;;;1.80;1.30;;;;;;;;;;5062016;28;20028;-88
2023/10/30 00:48:59;;;;;;;1.75;1.35;;;;;;;;;;5074833;28;20024;-88
2023/10/30 00:51:44;;;;;;;2.05;1.20;;;;;;;;;;5067705;28;20034;-88
2023/10/30 00:54:30;;;;;;;2.75;1.30;;;;;;;;;;5071998;28;20039;-90
2023/10/30 00:57:15;;;;;;;2.83;1.17;;;;;;;;;;5074360;28;20020;-88
2023/10/30 01:00:00;;;;;;;3.97;1.45;;;;;;;;;;5084672;28;20097;-89
2023/10/30 01:02:46;;;;;;;7.53;1.80;;;;;;;;;;5054962;28;20024;-88
2023/10/30 01:05:31;;;;;;;4.32;1.48;;;;;;;;;;5076653;28;20016;-89
2023/10/30 01:08:16;;;;;;;5.10;1.48;;;;;;;;;;5074977;28;20039;-88
2023/10/30 01:11:01;;;;;;;3.33;1.15;;;;;;;;;;5064050;28;20067;-88
2023/10/30 01:13:47;;;;;;;4.97;1.55;;;;;;;;;;5078901;28;20042;-88
2023/10/30 01:16:32;;;;;;;2.25;1.23;;;;;;;;;;5066476;28;20032;-88
2023/10/30 01:19:17;;;;;;;3.20;1.40;;;;;;;;;;5072594;28;20012;-88
2023/10/30 01:22:02;;;;;;;4.43;2.08;;;;;;;;;;5068837;28;20166;-88
2023/10/30 01:24:47;;;;;;;1.45;1.25;;;;;;;;;;5066414;28;20022;-88
2023/10/30 01:27:33;;;;;;;1.27;1.02;;;;;;;;;;5077021;28;20023;-88
2023/10/30 01:30:18;;;;;;;1.45;1.10;;;;;;;;;;5076827;28;20027;-87
2023/10/30 01:33:03;;;;;;;3.78;1.40;;;;;;;;;;5069531;28;20039;-88
2023/10/30 01:35:49;;;;;;;1.85;1.30;;;;;;;;;;5070612;28;20077;-88
2023/10/30 01:38:34;;;;;;;1.10;1.00;;;;;;;;;;5064808;28;20315;-88
2023/10/30 01:41:19;;;;;;;2.13;1.38;;;;;;;;;;5076401;28;20106;-87
2023/10/30 01:44:05;;;;;;;2.28;1.25;;;;;;;;;;5086542;28;20347;-88
2023/10/30 01:46:50;;;;;;;4.80;1.27;;;;;;;;;;5065124;28;20119;-88
2023/10/30 01:49:35;;;;;;;3.00;1.17;;;;;;;;;;5073870;28;20613;-87
2023/10/30 01:52:21;;;;;;;4.28;1.40;;;;;;;;;;5069295;28;20020;-87
2023/10/30 01:55:07;;;;;;;2.05;1.23;;;;;;;;;;5066283;28;20533;-86
2023/10/30 01:57:52;;;;;;;2.40;1.20;;;;;;;;;;5067849;28;20108;-86
2023/10/30 02:00:38;;;;;;;2.13;1.30;;;;;;;;;;5056403;28;20513;-88
2023/10/30 02:03:23;;;;;;;2.38;1.33;;;;;;;;;;5074849;28;20024;-87
2023/10/30 02:06:09;;;;;;;2.28;1.45;;;;;;;;;;5076151;28;20725;-87
2023/10/30 02:08:54;;;;;;;4.03;1.35;;;;;;;;;;5058036;28;20067;-87
2023/10/30 02:11:39;;;;;;;1.33;1.02;;;;;;;;;;5057600;28;20096;-87
2023/10/30 02:14:24;;;;;;;3.72;1.40;;;;;;;;;;5065570;28;20074;-88
2023/10/30 02:17:09;;;;;;;2.58;1.55;;;;;;;;;;5065351;28;20477;-86
2023/10/30 02:19:55;;;;;;;2.08;1.30;;;;;;;;;;5064145;28;20445;-87
2023/10/30 02:22:40;;;;;;;3.42;1.25;;;;;;;;;;5061219;28;20024;-86
2023/10/30 02:25:25;;;;;;;3.42;1.40;;;;;;;;;;5076047;28;20470;-88
2023/10/30 02:28:11;;;;;;;2.13;1.20;;;;;;;;;;5071360;28;20023;-88
2023/10/30 02:30:56;;;;;;;2.17;1.08;;;;;;;;;;5075250;28;20028;-88
2023/10/30 02:33:41;;;;;;;4.60;1.50;;;;;;;;;;5069287;28;20024;-88
2023/10/30 02:36:26;;;;;;;4.07;1.13;;;;;;;;;;5058616;28;20039;-87
2023/10/30 02:39:11;;;;;;;2.50;1.08;;;;;;;;;;5072337;28;20242;-87
2023/10/30 02:41:57;;;;;;;2.05;1.33;;;;;;;;;;5079907;28;20016;-89
2023/10/30 02:44:43;;;;;;;3.80;1.20;;;;;;;;;;5105139;28;20036;-89
2023/10/30 02:47:28;;;;;;;2.17;1.13;;;;;;;;;;5078591;28;20019;-88
2023/10/30 02:50:15;;;;;;;3.90;1.92;;;;;;;;;;5099388;28;20061;-89
2023/10/30 02:53:00;;;;;;;4.35;1.50;;;;;;;;;;5089269;28;20486;-87
2023/10/30 02:55:45;;;;;;;3.38;1.15;;;;;;;;;;5099909;28;20020;-88
2023/10/30 02:58:31;;;;;;;3.42;1.33;;;;;;;;;;5096307;28;20040;-88
2023/10/30 03:01:16;;;;;;;1.83;1.35;;;;;;;;;;5082173;28;20032;-88
2023/10/30 03:04:02;;;;;;;2.25;1.10;;;;;;;;;;5084417;28;20103;-88
2023/10/30 03:06:47;;;;;;;2.17;1.40;;;;;;;;;;5091928;28;20024;-88
2023/10/30 03:09:37;;;;;;;1.48;1.00;;;;;;;;;;5073125;28;20117;-88
2023/10/30 03:12:22;;;;;;;5.65;1.58;;;;;;;;;;5065278;28;20024;-89
2023/10/30 03:15:07;;;;;;;4.88;1.77;;;;;;;;;;5056951;28;20043;-88
2023/10/30 03:17:53;;;;;;;3.70;1.20;;;;;;;;;;5073152;28;20039;-88
2023/10/30 03:20:38;;;;;;;1.20;1.10;;;;;;;;;;5073229;28;20034;-90
2023/10/30 03:23:23;;;;;;;3.42;1.55;;;;;;;;;;5053268;28;20082;-89
2023/10/30 03:26:08;;;;;;;3.35;2.20;;;;;;;;;;5062216;28;20046;-89
2023/10/30 03:28:53;;;;;;;2.60;1.52;;;;;;;;;;5074259;28;20062;-88
2023/10/30 03:31:39;;;;;;;3.92;1.27;;;;;;;;;;5068502;28;20038;-87
2023/10/30 03:34:24;;;;;;;3.53;1.30;;;;;;;;;;5075100;28;20096;-88
2023/10/30 03:37:09;;;;;;;2.50;1.70;;;;;;;;;;5057091;28;20107;-88
2023/10/30 03:39:56;;;;;;;2.83;1.50;;;;;;;;;;5057822;28;20024;-89
2023/10/30 03:42:41;;;;;;;2.50;1.40;;;;;;;;;;5056978;28;20558;-89
2023/10/30 03:45:27;;;;;;;5.05;1.52;;;;;;;;;;5064111;28;20047;-89
2023/10/30 03:48:12;;;;;;;5.53;1.83;;;;;;;;;;5073518;28;20385;-89
2023/10/30 03:50:57;;;;;;;2.90;1.63;;;;;;;;;;5074004;28;20042;-88
2023/10/30 03:53:42;;;;;;;3.08;1.20;;;;;;;;;;5059601;28;20028;-89
2023/10/30 03:56:27;;;;;;;7.95;1.45;;;;;;;;;;5062580;28;20020;-89
2023/10/30 03:59:13;;;;;;;2.30;1.30;;;;;;;;;;5076868;28;20494;-88
2023/10/30 04:01:58;;;;;;;4.45;1.55;;;;;;;;;;5067341;28;20043;-88
2023/10/30 04:04:43;;;;;;;2.25;1.35;;;;;;;;;;5069014;28;20046;-90
2023/10/30 04:07:28;;;;;;;3.42;1.58;;;;;;;;;;5073957;28;20045;-89
2023/10/30 04:10:13;;;;;;;8.40;1.48;;;;;;;;;;5068998;28;20037;-89
2023/10/30 04:12:59;;;;;;;7.28;1.58;;;;;;;;;;5059381;28;20028;-88
2023/10/30 04:15:44;;;;;;;1.60;1.30;;;;;;;;;;5053800;28;20104;-88
2023/10/30 04:18:30;;;;;;;3.45;1.67;;;;;;;;;;5064465;28;20038;-90
2023/10/30 04:21:15;;;;;;;3.20;1.45;;;;;;;;;;5073090;28;20024;-89
2023/10/30 04:24:01;;;;;;;2.80;1.48;;;;;;;;;;5071394;28;20043;-90
2023/10/30 04:26:46;;;;;;;2.28;1.50;;;;;;;;;;5073443;28;20024;-90
2023/10/30 04:29:31;;;;;;;2.45;1.30;;;;;;;;;;5072404;28;20660;-89
2023/10/30 04:32:16;;;;;;;2.88;1.27;;;;;;;;;;5064616;28;20020;-89
2023/10/30 04:35:02;;;;;;;4.72;1.13;;;;;;;;;;5060374;28;20045;-89
2023/10/30 04:37:47;;;;;;;2.55;1.55;;;;;;;;;;5073230;28;20039;-88
2023/10/30 04:40:33;;;;;;;4.53;1.70;;;;;;;;;;5072185;28;20016;-88
2023/10/30 04:43:18;;;;;;;2.92;1.40;;;;;;;;;;5082590;28;20035;-88
2023/10/30 04:46:03;;;;;;;5.45;1.30;;;;;;;;;;5079450;28;20050;-88
2023/10/30 04:48:49;;;;;;;3.55;1.40;;;;;;;;;;5067277;28;20036;-88
2023/10/30 04:51:34;;;;;;;9.75;1.73;;;;;;;;;;5079882;28;20032;-90
2023/10/30 04:54:19;;;;;;;2.55;1.40;;;;;;;;;;5079224;28;20139;-90
2023/10/30 04:57:05;;;;;;;3.22;1.33;;;;;;;;;;5080609;28;20456;-90
2023/10/30 04:59:50;;;;;;;3.22;1.60;;;;;;;;;;5080397;28;20417;-88
2023/10/30 05:02:35;;;;;;;1.48;1.38;;;;;;;;;;5079947;28;20409;-88
2023/10/30 05:05:21;;;;;;;15.55;1.77;;;;;;;;;;5075262;28;20099;-89
2023/10/30 05:08:06;;;;;;;1.85;1.30;;;;;;;;;;5073281;28;20023;-90
2023/10/30 05:10:51;;;;;;;2.58;1.60;;;;;;;;;;5080694;28;20052;-90
2023/10/30 05:13:36;;;;;;;2.22;1.67;;;;;;;;;;5058209;28;20103;-90
2023/10/30 05:16:21;;;;;;;3.00;1.52;;;;;;;;;;5077161;28;20028;-89
2023/10/30 05:19:07;;;;;;;2.55;1.17;;;;;;;;;;5079795;28;20035;-88
2023/10/30 05:21:52;;;;;;;2.38;1.40;;;;;;;;;;5080110;28;20463;-89
2023/10/30 05:24:37;;;;;;;3.35;1.30;;;;;;;;;;5075845;28;20597;-88
2023/10/30 05:27:25;;;;;;;2.53;1.30;;;;;;;;;;5073178;28;20015;-89
2023/10/30 05:30:11;;;;;;;2.63;1.20;;;;;;;;;;5080350;28;20031;-88
2023/10/30 05:32:56;;;;;;;5.30;1.65;;;;;;;;;;5080258;28;20054;-89
2023/10/30 05:35:42;;;;;;;3.22;2.38;;;;;;;;;;5072316;28;20493;-89
2023/10/30 05:38:27;;;;;;;1.80;1.30;;;;;;;;;;5076256;28;20260;-90
2023/10/30 05:41:15;;;;;;;4.07;1.40;;;;;;;;;;5080205;28;20119;-89
2023/10/30 05:44:00;;;;;;;2.13;1.77;;;;;;;;;;5075101;28;20349;-88
2023/10/30 05:46:46;;;;;;;4.85;1.30;;;;;;;;;;5072812;28;20020;-89
2023/10/30 05:49:37;;;;;;;5.25;1.70;;;;;;;;;;5085645;28;20097;-90
2023/10/30 05:52:22;;;;;;;4.55;1.70;;;;;;;;;;5060825;28;20070;-89
2023/10/30 05:55:08;;;;;;;2.55;1.60;;;;;;;;;;5077092;28;20030;-89
2023/10/30 05:57:53;;;;;;;3.90;1.95;;;;;;;;;;5071942;28;20242;-90
2023/10/30 06:00:39;;;;;;;12.60;3.25;;;;;;;;;;5077989;28;20040;-90
2023/10/30 06:03:24;;;;;;;5.13;1.60;;;;;;;;;;5084026;28;20012;-90
2023/10/30 06:06:09;;;;;;;4.18;1.60;;;;;;;;;;5071480;28;20070;-89
2023/10/30 06:08:54;;;;;;;4.78;1.75;;;;;;;;;;5077620;28;20055;-90
2023/10/30 06:11:40;;;;;;;2.42;1.15;;;;;;;;;;5067003;28;20024;-89
2023/10/30 06:14:25;;;;;;;3.30;1.98;;;;;;;;;;5077274;28;20451;-89
2023/10/30 06:17:10;;;;;;;2.63;2.08;;;;;;;;;;5068289;28;20019;-88
2023/10/30 06:19:55;;;;;;;3.13;1.70;;;;;;;;;;5085733;28;20032;-90
2023/10/30 06:22:41;;;;;;;4.25;2.35;;;;;;;;;;5071020;28;20024;-91
2023/10/30 06:25:27;;;;;;;8.40;2.20;;;;;;;;;;5057878;28;20020;-90
2023/10/30 06:28:14;;;;;;;5.95;2.22;;;;;;;;;;5064617;28;20371;-88
2023/10/30 06:31:00;;;;;;;4.22;2.42;;;;;;;;;;5066889;28;20055;-90
2023/10/30 06:33:46;;;;;;;4.93;2.10;;;;;;;;;;5073702;28;20029;-89
2023/10/30 06:36:32;;;;;;;5.45;2.38;;;;;;;;;;5073629;28;20039;-89
2023/10/30 06:39:20;;;;;;;4.25;2.22;;;;;;;;;;5079017;28;20428;-88
2023/10/30 06:42:05;;;;;;;4.90;2.15;;;;;;;;;;5088618;28;20027;-90
2023/10/30 06:44:51;;;;;;;5.10;2.83;;;;;;;;;;5075665;28;20024;-89
2023/10/30 06:47:37;;;;;;;8.52;2.55;;;;;;;;;;5067554;28;20046;-89
2023/10/30 06:50:22;;;;;;;4.05;2.47;;;;;;;;;;5071146;28;20110;-89
2023/10/30 06:53:07;;;;;;;7.22;3.38;;;;;;;;;;5076040;28;20024;-87
2023/10/30 06:55:53;;;;;;;4.28;2.40;;;;;;;;;;5079833;28;20043;-88
2023/10/30 06:59:20;;;;;;;9.65;3.17;;;;;;;;;;5075110;28;20663;-87
2023/10/30 07:02:06;;;;;;;7.38;2.80;;;;;;;;;;5033014;28;20044;-84
2023/10/30 07:04:51;;;;;;;5.38;2.50;;;;;;;;;;5068084;28;20027;-85
2023/10/30 07:07:36;;;;;;;6.30;2.90;;;;;;;;;;5068078;28;20031;-86
2023/10/30 07:10:22;;;;;;;8.93;3.00;;;;;;;;;;5080588;28;20043;-84
2023/10/30 07:13:07;;;;;;;3.85;2.58;;;;;;;;;;5074988;28;20030;-90
2023/10/30 07:15:52;;;;;;;9.18;2.95;;;;;;;;;;5070825;28;20093;-89
2023/10/30 07:18:37;;;;;;;8.23;2.90;;;;;;;;;;5075179;28;20128;-90
2023/10/30 07:21:26;;;;;;;6.88;3.47;;;;;;;;;;5077971;28;20107;-89
2023/10/30 07:24:14;;;;;;;8.60;3.45;;;;;;;;;;5074826;28;20103;-88
2023/10/30 07:26:59;;;;;;;8.05;3.78;;;;;;;;;;5061874;28;20020;-89
2023/10/30 07:29:45;;;;;;;5.90;3.60;;;;;;;;;;5082552;28;20451;-89
2023/10/30 07:32:30;;;;;;;7.20;3.42;;;;;;;;;;5077199;28;20031;-89
2023/10/30 07:35:15;;;;;;;3.83;2.65;;;;;;;;;;5059476;28;20493;-89
2023/10/30 07:38:01;;;;;;;4.43;2.47;;;;;;;;;;5077396;28;20661;-89
2023/10/30 07:40:46;;;;;;;4.38;2.97;;;;;;;;;;5068872;28;20044;-89
2023/10/30 07:43:31;;;;;;;4.20;2.55;;;;;;;;;;5072522;28;20027;-89
2023/10/30 07:46:16;;;;;;;8.25;3.50;;;;;;;;;;5076255;28;20023;-89
2023/10/30 07:49:03;;;;;;;5.10;3.00;;;;;;;;;;5064167;28;20039;-89
2023/10/30 07:51:48;;;;;;;4.80;2.80;;;;;;;;;;5075485;28;20099;-88
2023/10/30 07:54:33;;;;;;;5.32;2.90;;;;;;;;;;5091022;28;20109;-90
2023/10/30 07:57:19;;;;;;;6.85;3.33;;;;;;;;;;5091068;28;20023;-90
2023/10/30 08:00:05;;;;;;;6.38;3.45;;;;;;;;;;5070955;28;20421;-89
2023/10/30 08:02:50;;;;;;;9.05;4.32;;;;;;;;;;5069913;28;20099;-90
2023/10/30 08:05:35;;;;;;;5.13;3.60;;;;;;;;;;5072074;28;20028;-89
2023/10/30 08:08:22;;;;;;;9.85;4.55;;;;;;;;;;5075116;28;20023;-89
2023/10/30 08:11:09;;;;;;;6.32;3.97;;;;;;;;;;5061930;28;20053;-89
2023/10/30 08:13:55;;;;;;;5.22;3.83;;;;;;;;;;5073648;28;20053;-90
2023/10/30 08:16:40;;;;;;;5.15;3.85;;;;;;;;;;5064340;28;20024;-89
2023/10/30 08:19:25;;;;;;;5.07;3.92;;;;;;;;;;5074472;28;20088;-87
2023/10/30 08:22:10;;;;;;;6.80;3.45;;;;;;;;;;5078924;28;20123;-90
2023/10/30 08:24:56;;;;;;;5.40;3.78;;;;;;;;;;5063665;28;20020;-89
2023/10/30 08:27:41;;;;;;;8.27;3.65;;;;;;;;;;5075167;28;20538;-90
2023/10/30 08:30:26;;;;;;;7.35;3.88;;;;;;;;;;5070374;28;20449;-90
2023/10/30 08:33:11;;;;;;;6.47;3.80;;;;;;;;;;5076937;28;20059;-88
2023/10/30 08:35:56;;;;;;;7.20;4.00;;;;;;;;;;5077096;28;20032;-89
2023/10/30 08:38:42;;;;;;;5.30;3.42;;;;;;;;;;5077655;28;20112;-90
2023/10/30 08:41:27;;;;;;;9.27;3.72;;;;;;;;;;5081032;28;20067;-90
2023/10/30 08:44:13;;;;;;;7.20;4.32;;;;;;;;;;5067108;28;20075;-92
2023/10/30 08:47:00;;;;;;;7.35;4.00;;;;;;;;;;5094947;28;20035;-91
2023/10/30 08:49:45;;;;;;;7.97;4.70;;;;;;;;;;5071333;28;20052;-91
2023/10/30 08:52:30;;;;;;;6.57;4.00;;;;;;;;;;5087114;28;20027;-90
2023/10/30 08:55:15;;;;;;;12.50;4.78;;;;;;;;;;5083489;28;20320;-88
2023/10/30 08:58:01;;;;;;;7.10;4.10;;;;;;;;;;5072671;28;20074;-92
2023/10/30 09:00:46;;;;;;;6.47;3.97;;;;;;;;;;5082706;28;20048;-91
2023/10/30 09:03:34;;;;;;;7.30;3.97;;;;;;;;;;5058954;28;20080;-92
2023/10/30 09:06:22;;;;;;;7.00;3.92;;;;;;;;;;5075515;28;20471;-93
2023/10/30 09:09:08;;;;;;;7.72;4.22;;;;;;;;;;5074111;28;20441;-91
2023/10/30 09:11:54;;;;;;;8.45;3.90;;;;;;;;;;5076452;28;20044;-90
2023/10/30 09:14:39;;;;;;;7.55;4.82;;;;;;;;;;5072333;28;20036;-89
2023/10/30 09:17:24;;;;;;;8.93;4.28;;;;;;;;;;5073185;28;20028;-88
2023/10/30 09:20:12;;;;;;;7.88;3.83;;;;;;;;;;5073631;28;20547;-88
2023/10/30 09:22:57;;;;;;;6.60;3.67;;;;;;;;;;5074145;28;20482;-89
2023/10/30 09:25:42;;;;;;;6.63;4.25;;;;;;;;;;5069956;28;20551;-88
2023/10/30 09:28:27;;;;;;;8.82;4.43;;;;;;;;;;5062339;28;20462;-89
2023/10/30 09:31:13;;;;;;;5.72;3.47;;;;;;;;;;5063892;28;20017;-87
2023/10/30 09:33:58;;;;;;;6.25;4.03;;;;;;;;;;5063970;28;20097;-88
2023/10/30 09:36:43;;;;;;;5.25;3.72;;;;;;;;;;5060643;28;20063;-86
2023/10/30 09:39:29;;;;;;;6.43;3.22;;;;;;;;;;5075560;28;20405;-85
2023/10/30 09:42:14;;;;;;;5.15;3.58;;;;;;;;;;5071245;28;20021;-86
2023/10/30 09:44:59;;;;;;;4.88;3.22;;;;;;;;;;5068870;28;20028;-87
2023/10/30 09:47:45;;;;;;;6.68;3.58;;;;;;;;;;5076325;28;20057;-87
2023/10/30 09:50:30;;;;;;;5.25;2.95;;;;;;;;;;5076510;28;20016;-87
2023/10/30 09:53:16;;;;;;;4.85;2.72;;;;;;;;;;5064196;28;20420;-86
2023/10/30 09:56:02;;;;;;;4.32;2.72;;;;;;;;;;5073444;28;20028;-85
2023/10/30 09:58:47;;;;;;;4.20;2.42;;;;;;;;;;5067875;28;20024;-86
2023/10/30 10:01:33;;;;;;;5.15;2.88;;;;;;;;;;5081466;28;20036;-85
2023/10/30 10:04:18;;;;;;;4.25;2.53;;;;;;;;;;5076156;28;20024;-83
2023/10/30 10:07:05;;;;;;;6.45;3.25;;;;;;;;;;5065959;28;20047;-84
2023/10/30 10:10:03;;;;;;;4.25;2.45;;;;;;;;;;5075896;28;20048;-83
2023/10/30 10:12:48;;;;;;;5.00;2.30;;;;;;;;;;5076135;28;20323;-83
2023/10/30 10:15:34;;;;;;;5.80;3.20;;;;;;;;;;5064014;28;20020;-83
2023/10/30 10:18:26;;;;;;;6.70;2.80;;;;;;;;;;5074453;28;20085;-82
2023/10/30 10:21:11;;;;;;;3.28;2.00;;;;;;;;;;5075536;28;20031;-82
2023/10/30 10:23:57;;;;;;;4.93;3.00;;;;;;;;;;5064655;28;20050;-82
2023/10/30 10:26:46;;;;;;;3.17;1.90;;;;;;;;;;5075415;28;20107;-82
2023/10/30 10:29:32;;;;;;;7.57;2.42;;;;;;;;;;5062375;28;20386;-82
2023/10/30 10:32:17;;;;;;;2.95;1.98;;;;;;;;;;5065120;28;20027;-84
2023/10/30 10:35:05;;;;;;;3.80;2.40;;;;;;;;;;5075413;28;20120;-85
2023/10/30 10:38:06;;;;;;;4.30;2.55;;;;;;;;;;5075370;28;20036;-83
2023/10/30 10:40:51;;;;;;;4.95;2.35;;;;;;;;;;5074890;28;20020;-85
2023/10/30 10:43:37;;;;;;;3.75;2.45;;;;;;;;;;5089947;28;20074;-86
2023/10/30 10:46:22;;;;;;;3.42;2.35;;;;;;;;;;5084270;28;20032;-85
2023/10/30 10:49:08;;;;;;;4.85;2.60;;;;;;;;;;5091229;28;20504;-83
2023/10/30 10:51:53;;;;;;;4.63;2.33;;;;;;;;;;5086892;28;20292;-85
2023/10/30 10:54:45;;;;;;;4.65;2.47;;;;;;;;;;5086761;28;20012;-85
2023/10/30 10:58:03;;;;;;;2.47;1.92;;;;;;;;;;5065241;28;20020;-83
2023/10/30 11:00:49;;;;;;;5.80;2.30;;;;;;;;;;5031467;28;20035;-84
2023/10/30 11:03:36;;;;;;;4.28;2.25;;;;;;;;;;5070991;28;20027;-85
2023/10/30 11:06:25;;;;;;;5.13;2.20;;;;;;;;;;5072583;28;20035;-85
2023/10/30 11:09:31;;;;;;;4.70;1.77;;;;;;;;;;5074345;28;20082;-86
2023/10/30 11:12:16;;;;;;;3.55;2.15;;;;;;;;;;5075018;28;20032;-84
2023/10/30 11:15:01;;;;;;;6.43;2.33;;;;;;;;;;5070888;28;20432;-86
2023/10/30 11:18:05;;;;;;;5.63;2.35;;;;;;;;;;5076615;28;20316;-85
2023/10/30 11:21:06;;;;;;;3.10;2.28;;;;;;;;;;5066318;28;20020;-86
2023/10/30 11:23:53;;;;;;;4.70;2.10;;;;;;;;;;5063178;28;20024;-85
2023/10/30 11:26:39;;;;;;;4.90;1.92;;;;;;;;;;5063717;28;20032;-86
2023/10/30 11:29:44;;;;;;;5.63;2.40;;;;;;;;;;5074587;28;20251;-84
2023/10/30 11:32:32;;;;;;;5.47;1.92;;;;;;;;;;5077362;28;20024;-86
2023/10/30 11:35:24;;;;;;;2.97;1.95;;;;;;;;;;5074657;28;20032;-85
2023/10/30 11:38:09;;;;;;;3.97;1.27;;;;;;;;;;5076067;28;20034;-85
2023/10/30 11:41:06;;;;;;;5.00;1.83;;;;;;;;;;5061150;28;20024;-86
2023/10/30 11:44:06;;;;;;;1.73;1.38;;;;;;;;;;5069617;28;20088;-85
2023/10/30 11:46:51;;;;;;;;;;;;;;;;;;5067788;28;20379;-85
2023/10/30 11:49:36;;;;;;;2.40;1.40;;;;;;;;;;5073648;28;20000;-85
2023/10/30 11:52:23;;;;;;;2.80;1.60;;;;;;;;;;5070120;28;20032;-85
2023/10/30 11:55:08;;;;;;;2.53;1.65;;;;;;;;;;5069595;28;20103;-85
2023/10/30 11:57:55;;;;;;;3.83;1.50;;;;;;;;;;5073725;28;20020;-85
2023/10/30 12:00:44;;;;;;;4.40;1.80;;;;;;;;;;5081014;28;20024;-85
2023/10/30 12:03:30;;;;;;;2.65;1.35;;;;;;;;;;5063021;28;20019;-84
2023/10/30 12:06:15;;;;;;;3.20;1.80;;;;;;;;;;5074194;28;20032;-84
2023/10/30 12:09:00;;;;;;;4.38;1.80;;;;;;;;;;5073690;28;20173;-84
2023/10/30 12:11:46;;;;;;;5.20;1.30;;;;;;;;;;5065304;28;20035;-85
2023/10/30 12:14:31;;;;;;;2.25;1.23;;;;;;;;;;5064271;28;20027;-84
2023/10/30 12:17:17;;;;;;;7.25;1.75;;;;;;;;;;5070602;28;20032;-84
2023/10/30 12:20:03;;;;;;;7.35;1.48;;;;;;;;;;5074053;28;20024;-85
2023/10/30 12:22:48;;;;;;;3.47;1.60;;;;;;;;;;5066543;28;20119;-86
2023/10/30 12:25:33;;;;;;;5.80;2.00;;;;;;;;;;5074041;28;20031;-86
2023/10/30 12:28:18;;;;;;;4.05;1.52;;;;;;;;;;5073473;28;20474;-86
2023/10/30 12:31:16;;;;;;;3.25;1.58;;;;;;;;;;5075928;28;20534;-86
2023/10/30 12:34:27;;;;;;;2.53;1.20;;;;;;;;;;5074994;28;20035;-85
2023/10/30 12:37:17;;;;;;;2.47;1.15;;;;;;;;;;5058623;28;20020;-86
2023/10/30 12:40:03;;;;;;;;;;;;;;;;;;5073460;28;20076;-85
2023/10/30 12:42:49;;;;;;;3.65;1.73;;;;;;;;;;5073753;28;19915;-85
2023/10/30 12:45:37;;;;;;;3.40;1.27;;;;;;;;;;5073153;28;20032;-84
2023/10/30 12:48:22;;;;;;;4.25;1.20;;;;;;;;;;5063016;28;20028;-85
2023/10/30 12:51:07;;;;;;;2.05;1.30;;;;;;;;;;5072027;28;20077;-86
2023/10/30 12:53:53;;;;;;;2.83;1.10;;;;;;;;;;5073806;28;20024;-86
2023/10/30 12:56:39;;;;;;;1.70;1.08;;;;;;;;;;5071794;28;20425;-85
2023/10/30 12:59:24;;;;;;;3.88;1.17;;;;;;;;;;5073180;28;20032;-85
2023/10/30 13:02:09;;;;;;;4.10;1.00;;;;;;;;;;5055868;28;20028;-85
2023/10/30 13:04:54;;;;;;;5.40;1.30;;;;;;;;;;5078387;28;20055;-85
2023/10/30 13:07:40;;;;;;;5.15;2.00;;;;;;;;;;5076703;28;20035;-85
2023/10/30 13:10:26;;;;;;;3.38;1.40;;;;;;;;;;5063609;28;20048;-84
2023/10/30 13:13:16;;;;;;;1.48;1.30;;;;;;;;;;5055089;28;20059;-84
2023/10/30 13:16:01;;;;;;;6.53;1.25;;;;;;;;;;5048597;28;20031;-84
2023/10/30 13:18:46;;;;;;;2.53;1.60;;;;;;;;;;5049385;28;20643;-84
2023/10/30 13:21:32;;;;;;;4.00;1.42;;;;;;;;;;5056939;28;20135;-85
2023/10/30 13:24:17;;;;;;;5.45;2.50;;;;;;;;;;5058110;28;20024;-84
2023/10/30 13:27:02;;;;;;;1.25;1.05;;;;;;;;;;5045574;28;20026;-85
2023/10/30 13:29:47;;;;;;;4.00;1.60;;;;;;;;;;5056708;28;20332;-84
2023/10/30 13:32:33;;;;;;;7.05;1.25;;;;;;;;;;5046129;28;20082;-84
2023/10/30 13:35:18;;;;;;;3.53;1.10;;;;;;;;;;5057771;28;20028;-85
2023/10/30 13:38:04;;;;;;;2.70;1.58;;;;;;;;;;5055395;28;20107;-85
2023/10/30 13:40:51;;;;;;;5.07;1.15;;;;;;;;;;5057471;28;20040;-86
2023/10/30 13:43:36;;;;;;;2.05;1.30;;;;;;;;;;5056165;28;20111;-86
2023/10/30 13:46:21;;;;;;;6.95;1.58;;;;;;;;;;5051905;28;20108;-86
2023/10/30 13:49:07;;;;;;;2.15;1.15;;;;;;;;;;5064905;28;20012;-86
2023/10/30 13:51:52;;;;;;;3.97;1.50;;;;;;;;;;5050184;28;20036;-85
2023/10/30 13:54:37;;;;;;;5.60;1.60;;;;;;;;;;5057340;28;20048;-85
2023/10/30 13:57:22;;;;;;;3.08;1.83;;;;;;;;;;5062820;28;20039;-86
2023/10/30 14:00:09;;;;;;;3.55;1.40;;;;;;;;;;5039934;28;20025;-85
2023/10/30 14:02:55;;;;;;;2.72;1.20;;;;;;;;;;5052519;28;20383;-85
2023/10/30 14:05:40;;;;;;;2.70;1.27;;;;;;;;;;5056796;28;20032;-85
2023/10/30 14:08:25;;;;;;;5.25;1.30;;;;;;;;;;5054702;28;20070;-85
2023/10/30 14:11:10;;;;;;;2.30;1.55;;;;;;;;;;5055217;28;20487;-85
2023/10/30 14:13:55;;;;;;;3.95;1.60;;;;;;;;;;5059566;28;20076;-84
2023/10/30 14:16:41;;;;;;;4.97;1.85;;;;;;;;;;5063474;28;20059;-84
2023/10/30 14:19:26;;;;;;;3.53;1.85;;;;;;;;;;5050806;28;20100;-85
2023/10/30 14:22:11;;;;;;;4.20;2.00;;;;;;;;;;5057977;28;20020;-85
2023/10/30 14:24:56;;;;;;;5.70;1.75;;;;;;;;;;5055351;28;20532;-84
2023/10/30 14:27:42;;;;;;;5.00;1.38;;;;;;;;;;5056013;28;20463;-84
2023/10/30 14:30:28;;;;;;;3.72;1.30;;;;;;;;;;5056831;28;20026;-84
2023/10/30 14:33:13;;;;;;;4.18;1.50;;;;;;;;;;5072070;28;20068;-84
2023/10/30 14:35:58;;;;;;;5.03;1.85;;;;;;;;;;5055772;28;20107;-85
2023/10/30 14:38:43;;;;;;;7.13;1.77;;;;;;;;;;5056365;28;20317;-84
2023/10/30 14:41:31;;;;;;;4.65;1.80;;;;;;;;;;5049333;28;20547;-84
2023/10/30 14:44:16;;;;;;;5.43;2.08;;;;;;;;;;5052430;28;20025;-83
2023/10/30 14:47:02;;;;;;;3.15;1.80;;;;;;;;;;5054979;28;20016;-85
2023/10/30 14:49:47;;;;;;;4.75;2.67;;;;;;;;;;5036428;28;20021;-87
2023/10/30 14:52:32;;;;;;;4.20;1.83;;;;;;;;;;5046545;28;20052;-85
2023/10/30 14:55:17;;;;;;;3.53;1.90;;;;;;;;;;5056656;28;20025;-86
2023/10/30 14:58:02;;;;;;;5.45;1.70;;;;;;;;;;5052690;28;20017;-86
2023/10/30 15:00:48;;;;;;;2.78;1.50;;;;;;;;;;5065138;28;20077;-86
2023/10/30 15:03:33;;;;;;;3.55;1.60;;;;;;;;;;5066433;28;20025;-87
2023/10/30 15:06:18;;;;;;;3.20;1.98;;;;;;;;;;5055068;28;20031;-85
2023/10/30 15:09:05;;;;;;;2.92;1.67;;;;;;;;;;5060250;28;20036;-85
2023/10/30 15:11:50;;;;;;;4.47;1.65;;;;;;;;;;5074054;28;20031;-86
2023/10/30 15:14:35;;;;;;;4.15;1.90;;;;;;;;;;5074720;28;20062;-85
2023/10/30 15:17:21;;;;;;;4.57;1.48;;;;;;;;;;5068866;28;20271;-85
2023/10/30 15:20:06;;;;;;;2.75;1.63;;;;;;;;;;5074432;28;20032;-84
2023/10/30 15:22:51;;;;;;;4.40;1.80;;;;;;;;;;5074084;28;20507;-85
2023/10/30 15:25:37;;;;;;;3.83;1.90;;;;;;;;;;5074890;28;20024;-85
2023/10/30 15:28:22;;;;;;;4.32;1.52;;;;;;;;;;5074422;28;20028;-85
2023/10/30 15:31:07;;;;;;;5.05;2.58;;;;;;;;;;5083314;28;20031;-85
2023/10/30 15:33:53;;;;;;;4.78;2.25;;;;;;;;;;5062943;28;20038;-85
2023/10/30 15:36:39;;;;;;;3.33;1.50;;;;;;;;;;5075333;28;20035;-84
2023/10/30 15:39:24;;;;;;;5.57;2.17;;;;;;;;;;5068423;28;20028;-84
2023/10/30 15:42:09;;;;;;;4.30;1.50;;;;;;;;;;5076711;28;20035;-85
2023/10/30 15:44:54;;;;;;;6.15;2.15;;;;;;;;;;5074038;28;20382;-85
2023/10/30 15:47:41;;;;;;;4.15;1.50;;;;;;;;;;5081612;28;20043;-85
2023/10/30 15:50:26;;;;;;;5.82;1.73;;;;;;;;;;5075011;28;20024;-85
2023/10/30 15:53:12;;;;;;;3.05;1.67;;;;;;;;;;5075092;28;20587;-84
2023/10/30 15:55:57;;;;;;;4.07;1.88;;;;;;;;;;5073774;28;20043;-85
2023/10/30 15:58:42;;;;;;;4.03;2.00;;;;;;;;;;5069919;28;20097;-84
2023/10/30 16:01:28;;;;;;;9.38;2.40;;;;;;;;;;5084960;28;20056;-85
2023/10/30 16:04:13;;;;;;;4.90;2.47;;;;;;;;;;5073598;28;20604;-87
2023/10/30 16:06:58;;;;;;;3.80;1.98;;;;;;;;;;5074149;28;20032;-86
2023/10/30 16:09:43;;;;;;;5.97;2.08;;;;;;;;;;5075106;28;20052;-85
2023/10/30 16:12:29;;;;;;;5.65;2.20;;;;;;;;;;5069535;28;20077;-85
2023/10/30 16:15:15;;;;;;;6.32;2.20;;;;;;;;;;5068510;28;20308;-86
2023/10/30 16:18:00;;;;;;;3.75;1.92;;;;;;;;;;5077385;28;20024;-86
2023/10/30 16:20:46;;;;;;;4.35;1.73;;;;;;;;;;5075101;28;20019;-86
2023/10/30 16:23:31;;;;;;;5.70;1.83;;;;;;;;;;5066908;28;20061;-86
2023/10/30 16:26:16;;;;;;;7.72;2.20;;;;;;;;;;5073853;28;20027;-86
2023/10/30 16:29:03;;;;;;;7.18;2.45;;;;;;;;;;5078639;28;20020;-86
2023/10/30 16:31:49;;;;;;;5.60;2.28;;;;;;;;;;5073200;28;20027;-86
2023/10/30 16:34:34;;;;;;;5.45;2.50;;;;;;;;;;5073988;28;20504;-85
2023/10/30 16:37:19;;;;;;;7.20;2.15;;;;;;;;;;5057958;28;20028;-84